Time;durP1;ratioP1;P1;durP2;ratioP2;P2;SDS_P1;SDS_P2;PMS_P1;PMS_P2;Temp;Humidity;BMP_temperature;BMP_pressure;BME280_temperature;BME280_humidity;BME280_pressure;Samples;Min_cycle;Max_cycle;Signal;HPM_P1;HPM_P2
2022/07/03 00:01:32;;;;;;;3.15;1.77;;;;;;;;;;5128415;27;20062;-63
2022/07/03 00:03:58;;;;;;;3.00;1.90;;;;;;;;;;5127237;27;20123;-63
2022/07/03 00:06:26;;;;;;;3.05;2.08;;;;;;;;;;5130738;27;20258;-63
2022/07/03 00:08:52;;;;;;;2.13;1.92;;;;;;;;;;5129796;27;20039;-63
2022/07/03 00:11:18;;;;;;;2.30;1.63;;;;;;;;;;5130305;27;20399;-63
2022/07/03 00:13:44;;;;;;;3.17;1.40;;;;;;;;;;5128265;27;20046;-63
2022/07/03 00:16:10;;;;;;;1.48;1.38;;;;;;;;;;5131207;27;20038;-63
2022/07/03 00:18:36;;;;;;;2.42;1.70;;;;;;;;;;5129744;27;20035;-63
2022/07/03 00:21:08;;;;;;;1.90;1.80;;;;;;;;;;5130247;27;20088;-63
2022/07/03 00:23:54;;;;;;;2.65;1.63;;;;;;;;;;5129443;27;20151;-63
2022/07/03 00:26:21;;;;;;;2.75;1.95;;;;;;;;;;5126093;28;20093;-63
2022/07/03 00:28:47;;;;;;;2.28;1.90;;;;;;;;;;5126489;28;20122;-63
2022/07/03 00:31:14;;;;;;;5.88;2.35;;;;;;;;;;5128903;27;20031;-63
2022/07/03 00:33:41;;;;;;;3.33;2.00;;;;;;;;;;5123313;27;20389;-63
2022/07/03 00:36:07;;;;;;;2.83;2.03;;;;;;;;;;5129398;27;20031;-63
2022/07/03 00:38:33;;;;;;;2.20;2.00;;;;;;;;;;5132142;27;20066;-63
2022/07/03 00:41:01;;;;;;;2.72;2.10;;;;;;;;;;5127264;27;20031;-63
2022/07/03 00:43:27;;;;;;;2.58;2.20;;;;;;;;;;5120230;27;20043;-63
2022/07/03 00:45:54;;;;;;;2.60;2.10;;;;;;;;;;5121997;28;20042;-62
2022/07/03 00:48:20;;;;;;;3.30;2.00;;;;;;;;;;5116556;27;20054;-62
2022/07/03 00:50:47;;;;;;;1.90;1.70;;;;;;;;;;5125556;27;20374;-63
2022/07/03 00:53:16;;;;;;;1.67;1.58;;;;;;;;;;5128163;27;20031;-63
2022/07/03 00:55:44;;;;;;;2.60;1.75;;;;;;;;;;5127027;27;20115;-63
2022/07/03 00:58:10;;;;;;;2.05;1.88;;;;;;;;;;5135760;27;20035;-63
2022/07/03 01:00:40;;;;;;;3.20;2.00;;;;;;;;;;5133755;27;20656;-63
2022/07/03 01:03:07;;;;;;;2.70;1.83;;;;;;;;;;5131029;27;20426;-63
2022/07/03 01:05:36;;;;;;;4.18;2.45;;;;;;;;;;5135429;27;20317;-62
2022/07/03 01:08:02;;;;;;;3.78;2.40;;;;;;;;;;5133997;27;21267;-63
2022/07/03 01:10:31;;;;;;;2.42;2.20;;;;;;;;;;5135353;27;20070;-63
2022/07/03 01:13:16;;;;;;;3.78;2.30;;;;;;;;;;5130577;27;20031;-63
2022/07/03 01:15:57;;;;;;;3.15;2.55;;;;;;;;;;5120230;27;20035;-63
2022/07/03 01:18:39;;;;;;;2.45;2.25;;;;;;;;;;5126152;27;20423;-63
2022/07/03 01:21:09;;;;;;;2.28;1.73;;;;;;;;;;5135545;27;20077;-62
2022/07/03 01:23:41;;;;;;;2.50;1.85;;;;;;;;;;5124716;27;20035;-62
2022/07/03 01:26:08;;;;;;;4.30;2.20;;;;;;;;;;5125726;27;20081;-63
2022/07/03 01:28:36;;;;;;;2.17;1.98;;;;;;;;;;5120683;27;20075;-63
2022/07/03 01:31:03;;;;;;;3.03;2.15;;;;;;;;;;5130552;27;20031;-63
2022/07/03 01:33:32;;;;;;;2.60;2.00;;;;;;;;;;5134955;27;20035;-62
2022/07/03 01:36:01;;;;;;;4.30;2.17;;;;;;;;;;5128992;27;20056;-62
2022/07/03 01:38:37;;;;;;;2.53;2.33;;;;;;;;;;5131639;27;20043;-63
2022/07/03 01:41:04;;;;;;;3.28;2.55;;;;;;;;;;5126817;27;20078;-62
2022/07/03 01:43:32;;;;;;;2.95;2.65;;;;;;;;;;5126339;27;20043;-62
2022/07/03 01:45:58;;;;;;;3.00;2.80;;;;;;;;;;5134634;27;20454;-62
2022/07/03 01:48:25;;;;;;;1.65;1.55;;;;;;;;;;5129213;27;20118;-63
2022/07/03 01:50:51;;;;;;;3.35;2.10;;;;;;;;;;5126573;27;20122;-62
2022/07/03 01:53:18;;;;;;;4.95;2.30;;;;;;;;;;5120917;27;20072;-62
2022/07/03 01:55:44;;;;;;;2.35;1.75;;;;;;;;;;5119487;27;20035;-62
2022/07/03 01:58:11;;;;;;;2.58;2.15;;;;;;;;;;5124885;27;20088;-63
2022/07/03 02:00:41;;;;;;;2.20;2.00;;;;;;;;;;5127896;27;20057;-63
2022/07/03 02:03:07;;;;;;;2.95;2.17;;;;;;;;;;5133613;27;20039;-63
2022/07/03 02:05:37;;;;;;;3.88;2.30;;;;;;;;;;5117011;27;20089;-63
2022/07/03 02:08:15;;;;;;;2.50;2.30;;;;;;;;;;5114370;27;20050;-63
2022/07/03 02:10:46;;;;;;;2.40;2.15;;;;;;;;;;5124620;27;20042;-63
2022/07/03 02:13:17;;;;;;;2.25;2.00;;;;;;;;;;5129061;27;20050;-63
2022/07/03 02:15:43;;;;;;;3.97;2.47;;;;;;;;;;5133447;27;20466;-63
2022/07/03 02:18:29;;;;;;;3.53;2.97;;;;;;;;;;5123006;27;20564;-63
2022/07/03 02:21:06;;;;;;;3.13;2.50;;;;;;;;;;5126453;27;20039;-63
2022/07/03 02:23:35;;;;;;;3.28;2.97;;;;;;;;;;5133910;27;20035;-63
2022/07/03 02:26:04;;;;;;;4.75;3.03;;;;;;;;;;5130465;27;20373;-63
2022/07/03 02:28:30;;;;;;;3.20;3.00;;;;;;;;;;5120966;27;20047;-63
2022/07/03 02:30:57;;;;;;;3.30;3.00;;;;;;;;;;5134473;27;20404;-62
2022/07/03 02:33:25;;;;;;;2.80;2.60;;;;;;;;;;5131665;27;20484;-63
2022/07/03 02:35:53;;;;;;;2.17;2.00;;;;;;;;;;5126366;27;20042;-63
2022/07/03 02:38:20;;;;;;;2.42;2.05;;;;;;;;;;5125414;27;20043;-63
2022/07/03 02:40:50;;;;;;;2.30;2.00;;;;;;;;;;5123541;27;20054;-63
2022/07/03 02:43:16;;;;;;;3.23;2.70;;;;;;;;;;5134111;27;20043;-63
2022/07/03 02:45:50;;;;;;;4.10;3.53;;;;;;;;;;5129677;27;20036;-63
2022/07/03 02:48:21;;;;;;;4.80;3.75;;;;;;;;;;5112358;27;20047;-63
2022/07/03 02:50:51;;;;;;;3.95;3.55;;;;;;;;;;5129796;27;20076;-63
2022/07/03 02:53:26;;;;;;;4.20;3.80;;;;;;;;;;5120445;27;20039;-63
2022/07/03 02:55:56;;;;;;;4.00;3.60;;;;;;;;;;5131020;27;20510;-63
2022/07/03 02:58:40;;;;;;;4.20;3.80;;;;;;;;;;5126694;27;20054;-63
2022/07/03 03:01:25;;;;;;;5.00;3.88;;;;;;;;;;5125787;27;20514;-63
2022/07/03 03:03:56;;;;;;;4.50;4.10;;;;;;;;;;5124850;27;20042;-63
2022/07/03 03:06:24;;;;;;;5.97;2.38;;;;;;;;;;5122086;27;20046;-63
2022/07/03 03:08:51;;;;;;;3.05;2.38;;;;;;;;;;5126408;27;20046;-63
2022/07/03 03:11:24;;;;;;;2.38;1.95;;;;;;;;;;5124205;27;20040;-63
2022/07/03 03:13:51;;;;;;;4.15;2.67;;;;;;;;;;5125820;27;20030;-63
2022/07/03 03:16:17;;;;;;;4.45;2.72;;;;;;;;;;5129433;27;20084;-63
2022/07/03 03:18:45;;;;;;;3.70;2.95;;;;;;;;;;5130674;27;20042;-63
2022/07/03 03:21:12;;;;;;;2.97;2.67;;;;;;;;;;5126623;27;20031;-63
2022/07/03 03:23:44;;;;;;;4.32;2.65;;;;;;;;;;5132081;27;20420;-63
2022/07/03 03:26:11;;;;;;;3.45;2.70;;;;;;;;;;5133412;27;20099;-63
2022/07/03 03:28:39;;;;;;;5.13;3.30;;;;;;;;;;5120354;27;20078;-63
2022/07/03 03:31:08;;;;;;;5.57;3.53;;;;;;;;;;5116493;27;20036;-63
2022/07/03 03:33:37;;;;;;;4.70;3.10;;;;;;;;;;5131784;27;20116;-63
2022/07/03 03:36:04;;;;;;;5.60;3.80;;;;;;;;;;5128458;27;20243;-63
2022/07/03 03:38:30;;;;;;;4.80;3.60;;;;;;;;;;5127172;27;20050;-63
2022/07/03 03:40:56;;;;;;;2.63;2.47;;;;;;;;;;5122220;27;20035;-63
2022/07/03 03:43:22;;;;;;;3.05;2.78;;;;;;;;;;5120238;27;20030;-63
2022/07/03 03:45:48;;;;;;;4.82;2.97;;;;;;;;;;5131888;27;20057;-63
2022/07/03 03:48:14;;;;;;;3.55;3.10;;;;;;;;;;5132553;27;20031;-63
2022/07/03 03:50:42;;;;;;;4.13;3.72;;;;;;;;;;5132747;27;20071;-63
2022/07/03 03:53:08;;;;;;;4.15;3.28;;;;;;;;;;5128109;27;20039;-63
2022/07/03 03:55:34;;;;;;;5.85;3.83;;;;;;;;;;5131502;27;20038;-63
2022/07/03 03:58:01;;;;;;;4.70;4.22;;;;;;;;;;5128032;27;20114;-63
2022/07/03 04:00:27;;;;;;;4.97;3.83;;;;;;;;;;5123101;27;20114;-63
2022/07/03 04:02:53;;;;;;;6.22;4.22;;;;;;;;;;5131483;27;20035;-63
2022/07/03 04:05:19;;;;;;;4.93;4.30;;;;;;;;;;5128164;27;20046;-63
2022/07/03 04:07:45;;;;;;;5.07;4.57;;;;;;;;;;5125301;27;20039;-63
2022/07/03 04:10:11;;;;;;;5.25;4.35;;;;;;;;;;5132516;27;20114;-63
2022/07/03 04:12:37;;;;;;;4.70;4.30;;;;;;;;;;5122392;27;20062;-63
2022/07/03 04:15:04;;;;;;;5.53;4.85;;;;;;;;;;5136535;27;20035;-63
2022/07/03 04:17:30;;;;;;;5.45;5.05;;;;;;;;;;5126136;27;20042;-63
2022/07/03 04:19:56;;;;;;;5.68;5.13;;;;;;;;;;5131704;27;20039;-63
2022/07/03 04:22:22;;;;;;;5.38;4.88;;;;;;;;;;5118151;27;20044;-63
2022/07/03 04:24:48;;;;;;;7.57;4.80;;;;;;;;;;5119103;28;20042;-63
2022/07/03 04:27:14;;;;;;;6.72;4.72;;;;;;;;;;5123685;22;20180;-64
2022/07/03 04:29:40;;;;;;;5.80;5.00;;;;;;;;;;5104936;28;20035;-64
2022/07/03 04:32:06;;;;;;;5.65;5.13;;;;;;;;;;5126585;28;20042;-64
2022/07/03 04:34:32;;;;;;;6.30;4.78;;;;;;;;;;5111233;28;20039;-64
2022/07/03 04:36:58;;;;;;;6.32;5.72;;;;;;;;;;5126348;28;20039;-64
2022/07/03 04:39:24;;;;;;;6.72;6.05;;;;;;;;;;5110132;28;20051;-64
2022/07/03 04:41:50;;;;;;;6.75;5.97;;;;;;;;;;5109556;28;20039;-64
2022/07/03 04:44:16;;;;;;;7.07;6.43;;;;;;;;;;5096345;28;20117;-64
2022/07/03 04:46:42;;;;;;;6.80;6.10;;;;;;;;;;5075398;28;20050;-64
2022/07/03 04:49:08;;;;;;;6.68;5.80;;;;;;;;;;5109220;28;20113;-64
2022/07/03 04:51:34;;;;;;;7.80;6.40;;;;;;;;;;5111445;28;20035;-64
2022/07/03 04:54:00;;;;;;;8.10;6.60;;;;;;;;;;5103754;28;20119;-64
2022/07/03 04:56:26;;;;;;;8.95;7.63;;;;;;;;;;5109845;28;20118;-64
2022/07/03 04:58:52;;;;;;;8.70;7.28;;;;;;;;;;5105523;28;20055;-64
2022/07/03 05:01:18;;;;;;;8.50;6.85;;;;;;;;;;5110005;28;20048;-63
2022/07/03 05:03:44;;;;;;;9.93;7.18;;;;;;;;;;5090715;28;20667;-64
2022/07/03 05:06:10;;;;;;;7.72;6.90;;;;;;;;;;5103342;28;20054;-64
2022/07/03 05:08:36;;;;;;;8.48;7.18;;;;;;;;;;5107122;28;20043;-64
2022/07/03 05:11:02;;;;;;;9.82;6.85;;;;;;;;;;5106973;28;20118;-64
2022/07/03 05:13:28;;;;;;;8.10;6.57;;;;;;;;;;5119281;28;20162;-64
2022/07/03 05:15:54;;;;;;;8.27;6.72;;;;;;;;;;5103886;28;20080;-64
2022/07/03 05:18:20;;;;;;;7.18;6.47;;;;;;;;;;5110542;28;20051;-64
2022/07/03 05:20:46;;;;;;;7.38;6.15;;;;;;;;;;5111556;28;20039;-64
2022/07/03 05:23:12;;;;;;;8.43;6.63;;;;;;;;;;5109570;28;20035;-64
2022/07/03 05:25:38;;;;;;;10.27;6.88;;;;;;;;;;5109984;28;20040;-64
2022/07/03 05:28:04;;;;;;;8.30;7.47;;;;;;;;;;5100366;28;20037;-64
2022/07/03 05:30:30;;;;;;;9.35;7.00;;;;;;;;;;5090484;28;20039;-64
2022/07/03 05:32:56;;;;;;;8.38;7.13;;;;;;;;;;5111164;28;20032;-64
2022/07/03 05:35:23;;;;;;;8.30;7.50;;;;;;;;;;5111103;28;20494;-64
2022/07/03 05:37:49;;;;;;;9.80;7.60;;;;;;;;;;5110820;28;20046;-64
2022/07/03 05:40:15;;;;;;;8.15;7.35;;;;;;;;;;5113443;28;20047;-64
2022/07/03 05:42:41;;;;;;;8.90;6.72;;;;;;;;;;5077050;27;20047;-64
2022/07/03 05:45:08;;;;;;;7.70;7.05;;;;;;;;;;5088098;27;20112;-64
2022/07/03 05:47:34;;;;;;;8.18;6.85;;;;;;;;;;5088577;28;20044;-64
2022/07/03 05:50:00;;;;;;;7.60;6.32;;;;;;;;;;5102700;28;20062;-64
2022/07/03 05:52:26;;;;;;;8.25;6.60;;;;;;;;;;5106574;27;20070;-64
2022/07/03 05:54:52;;;;;;;8.10;6.22;;;;;;;;;;5111848;27;20092;-64
2022/07/03 05:57:18;;;;;;;6.65;5.93;;;;;;;;;;5112400;27;20446;-64
2022/07/03 05:59:44;;;;;;;7.10;6.35;;;;;;;;;;5113748;27;20039;-64
2022/07/03 06:02:10;;;;;;;8.32;5.85;;;;;;;;;;5113645;27;20085;-64
2022/07/03 06:04:36;;;;;;;6.18;5.55;;;;;;;;;;5116861;27;20032;-64
2022/07/03 06:07:02;;;;;;;7.05;5.60;;;;;;;;;;5113132;28;20374;-64
2022/07/03 06:09:28;;;;;;;5.97;4.68;;;;;;;;;;5114786;27;20543;-64
2022/07/03 06:11:54;;;;;;;6.13;4.68;;;;;;;;;;5114014;27;20436;-64
2022/07/03 06:14:20;;;;;;;8.40;3.78;;;;;;;;;;5114136;27;20123;-63
2022/07/03 06:16:46;;;;;;;7.93;4.40;;;;;;;;;;5112977;27;20445;-63
2022/07/03 06:19:12;;;;;;;4.53;3.80;;;;;;;;;;5105885;27;20039;-64
2022/07/03 06:21:38;;;;;;;6.43;3.80;;;;;;;;;;5109801;27;20048;-64
2022/07/03 06:24:04;;;;;;;4.10;3.33;;;;;;;;;;5111523;27;20031;-64
2022/07/03 06:26:30;;;;;;;5.70;3.13;;;;;;;;;;5105338;27;20047;-64
2022/07/03 06:28:56;;;;;;;3.10;2.60;;;;;;;;;;5103533;27;20035;-63
2022/07/03 06:31:22;;;;;;;3.90;2.53;;;;;;;;;;5111488;27;20088;-64
2022/07/03 06:33:48;;;;;;;4.22;2.42;;;;;;;;;;5104495;28;20031;-64
2022/07/03 06:36:15;;;;;;;4.13;2.17;;;;;;;;;;5110322;28;20042;-64
2022/07/03 06:38:41;;;;;;;5.60;2.13;;;;;;;;;;5107068;27;20526;-64
2022/07/03 06:41:06;;;;;;;3.35;1.80;;;;;;;;;;5111259;28;20071;-64
2022/07/03 06:43:32;;;;;;;5.32;2.00;;;;;;;;;;5108631;27;20163;-64
2022/07/03 06:45:58;;;;;;;3.70;1.52;;;;;;;;;;5107348;28;20164;-64
2022/07/03 06:48:24;;;;;;;4.00;1.88;;;;;;;;;;5118179;27;20550;-64
2022/07/03 06:50:51;;;;;;;2.88;1.52;;;;;;;;;;5103245;27;20032;-64
2022/07/03 06:53:17;;;;;;;3.05;1.60;;;;;;;;;;5110163;28;20040;-64
2022/07/03 06:55:43;;;;;;;2.95;1.40;;;;;;;;;;5105572;28;20512;-63
2022/07/03 06:58:09;;;;;;;2.92;1.30;;;;;;;;;;5105275;27;20050;-63
2022/07/03 07:00:38;;;;;;;3.25;1.50;;;;;;;;;;5101201;27;20083;-64
2022/07/03 07:03:04;;;;;;;3.05;1.48;;;;;;;;;;5114188;27;20038;-64
2022/07/03 07:05:30;;;;;;;3.47;1.45;;;;;;;;;;5113484;27;20071;-64
2022/07/03 07:07:56;;;;;;;2.88;1.30;;;;;;;;;;5116025;27;20058;-64
2022/07/03 07:10:22;;;;;;;2.80;1.48;;;;;;;;;;5105987;27;20034;-64
2022/07/03 07:12:49;;;;;;;2.72;1.50;;;;;;;;;;5099866;28;20117;-64
2022/07/03 07:15:15;;;;;;;2.70;1.20;;;;;;;;;;5115536;27;20048;-64
2022/07/03 07:17:41;;;;;;;3.40;1.65;;;;;;;;;;5112447;27;20035;-64
2022/07/03 07:20:07;;;;;;;2.97;1.83;;;;;;;;;;5108612;27;20031;-64
2022/07/03 07:22:34;;;;;;;4.13;1.60;;;;;;;;;;5116843;27;20043;-64
2022/07/03 07:25:00;;;;;;;3.97;2.00;;;;;;;;;;5108497;28;20084;-64
2022/07/03 07:27:26;;;;;;;5.43;1.88;;;;;;;;;;5101459;28;20119;-64
2022/07/03 07:29:52;;;;;;;5.72;2.50;;;;;;;;;;5084797;27;20503;-63
2022/07/03 07:32:18;;;;;;;3.42;2.38;;;;;;;;;;5108711;27;20078;-64
2022/07/03 07:34:44;;;;;;;3.95;2.65;;;;;;;;;;5107713;27;20032;-64
2022/07/03 07:37:10;;;;;;;4.05;2.30;;;;;;;;;;5090592;28;20213;-63
2022/07/03 07:39:36;;;;;;;4.05;2.22;;;;;;;;;;5092278;28;20044;-64
2022/07/03 07:42:03;;;;;;;3.50;1.92;;;;;;;;;;5107256;27;20163;-62
2022/07/03 07:44:29;;;;;;;5.13;1.90;;;;;;;;;;5110263;27;20031;-62
2022/07/03 07:46:55;;;;;;;3.92;2.20;;;;;;;;;;5111929;27;20493;-62
2022/07/03 07:49:21;;;;;;;3.08;1.80;;;;;;;;;;5114524;27;20043;-62
2022/07/03 07:51:47;;;;;;;3.50;2.03;;;;;;;;;;5085528;28;20416;-62
2022/07/03 07:54:12;;;;;;;3.13;1.70;;;;;;;;;;5107735;27;20040;-63
2022/07/03 07:56:39;;;;;;;2.42;1.50;;;;;;;;;;5088293;28;20137;-63
2022/07/03 07:59:05;;;;;;;7.60;1.83;;;;;;;;;;5103067;28;20045;-63
2022/07/03 08:07:00;;;;;;;2.75;1.50;;;;;;;;;;5088847;28;20043;-63
2022/07/03 08:09:26;;;;;;;2.55;1.58;;;;;;;;;;5108909;27;20097;-64
2022/07/03 08:11:52;;;;;;;4.05;1.60;;;;;;;;;;5090013;28;20487;-63
2022/07/03 08:14:18;;;;;;;2.33;1.55;;;;;;;;;;5103484;28;20208;-63
2022/07/03 08:16:46;;;;;;;2.13;1.80;;;;;;;;;;5104560;28;20032;-64
2022/07/03 08:19:12;;;;;;;3.58;1.90;;;;;;;;;;5106466;28;20499;-64
2022/07/03 08:21:38;;;;;;;3.03;1.80;;;;;;;;;;5110218;28;20044;-64
2022/07/03 08:24:04;;;;;;;6.85;1.98;;;;;;;;;;5109411;28;20032;-64
2022/07/03 08:26:30;;;;;;;5.80;2.67;;;;;;;;;;5081974;28;20039;-64
2022/07/03 08:28:56;;;;;;;2.92;2.20;;;;;;;;;;5106697;28;20038;-64
2022/07/03 08:31:22;;;;;;;4.55;2.13;;;;;;;;;;5109063;28;20035;-64
2022/07/03 08:33:48;;;;;;;5.13;1.85;;;;;;;;;;5107988;28;20042;-64
2022/07/03 08:36:14;;;;;;;3.25;1.90;;;;;;;;;;5087463;28;20424;-64
2022/07/03 08:38:40;;;;;;;3.15;1.85;;;;;;;;;;5106238;28;20042;-65
2022/07/03 08:41:07;;;;;;;3.92;1.90;;;;;;;;;;5107726;28;20046;-64
2022/07/03 08:43:33;;;;;;;3.90;1.60;;;;;;;;;;5105872;28;20115;-64
2022/07/03 08:46:00;;;;;;;5.22;1.60;;;;;;;;;;5105505;28;20036;-64
2022/07/03 08:48:28;;;;;;;4.35;1.40;;;;;;;;;;5104160;28;20062;-64
2022/07/03 08:50:54;;;;;;;4.65;1.40;;;;;;;;;;5105835;28;20136;-63
2022/07/03 08:53:20;;;;;;;2.53;1.38;;;;;;;;;;5106801;28;20034;-63
2022/07/03 08:55:48;;;;;;;3.15;1.50;;;;;;;;;;5096126;28;20111;-64
2022/07/03 08:58:15;;;;;;;2.42;1.27;;;;;;;;;;5108014;28;20462;-64
2022/07/03 09:00:41;;;;;;;3.33;1.20;;;;;;;;;;5099830;28;20039;-64
2022/07/03 09:03:11;;;;;;;3.15;1.58;;;;;;;;;;5110167;28;20035;-63
2022/07/03 09:05:37;;;;;;;3.72;1.65;;;;;;;;;;5110164;28;20511;-63
2022/07/03 09:08:06;;;;;;;4.85;1.60;;;;;;;;;;5110883;28;20036;-64
2022/07/03 09:10:32;;;;;;;6.05;1.73;;;;;;;;;;5112399;28;20050;-64
2022/07/03 09:12:59;;;;;;;2.85;1.48;;;;;;;;;;5099550;28;20040;-64
2022/07/03 09:15:25;;;;;;;3.35;1.27;;;;;;;;;;5114044;28;20036;-64
2022/07/03 09:17:58;;;;;;;3.03;1.60;;;;;;;;;;5114524;28;20677;-63
2022/07/03 09:20:28;;;;;;;2.30;1.40;;;;;;;;;;5112590;28;20074;-64
2022/07/03 09:22:54;;;;;;;3.35;1.75;;;;;;;;;;5114337;28;20043;-64
2022/07/03 09:25:20;;;;;;;4.32;1.75;;;;;;;;;;5109640;28;20080;-64
2022/07/03 09:27:50;;;;;;;3.55;1.23;;;;;;;;;;5111870;28;20134;-64
2022/07/03 09:30:16;;;;;;;1.98;1.30;;;;;;;;;;5112186;28;20046;-64
2022/07/03 09:32:44;;;;;;;4.13;1.73;;;;;;;;;;5114827;28;20042;-64
2022/07/03 09:35:16;;;;;;;2.03;1.02;;;;;;;;;;5112425;28;20039;-64
2022/07/03 09:37:48;;;;;;;4.35;1.00;;;;;;;;;;5114258;28;20063;-64
2022/07/03 09:40:16;;;;;;;2.58;1.10;;;;;;;;;;5114676;28;20036;-63
2022/07/03 09:42:56;;;;;;;2.58;0.90;;;;;;;;;;5110310;28;20044;-64
2022/07/03 09:45:22;;;;;;;1.85;0.90;;;;;;;;;;5093921;28;20035;-64
2022/07/03 09:47:48;;;;;;;3.03;0.77;;;;;;;;;;5097933;28;20044;-63
2022/07/03 09:50:15;;;;;;;3.38;0.70;;;;;;;;;;5114514;28;20374;-65
2022/07/03 09:52:48;;;;;;;1.58;0.73;;;;;;;;;;5110418;28;20036;-64
2022/07/03 09:55:16;;;;;;;3.38;0.90;;;;;;;;;;5093599;28;20036;-64
2022/07/03 09:57:44;;;;;;;3.45;1.05;;;;;;;;;;5112327;27;20051;-64
2022/07/03 10:00:23;;;;;;;3.63;1.13;;;;;;;;;;5107699;28;20073;-64
2022/07/03 10:02:55;;;;;;;1.33;0.82;;;;;;;;;;5114376;28;20417;-65
2022/07/03 10:05:22;;;;;;;2.90;1.02;;;;;;;;;;5114501;28;20039;-65
2022/07/03 10:07:55;;;;;;;2.20;0.82;;;;;;;;;;5113919;28;20036;-64
2022/07/03 10:10:23;;;;;;;2.75;0.85;;;;;;;;;;5113837;28;20071;-63
2022/07/03 10:12:53;;;;;;;3.67;1.10;;;;;;;;;;5086640;28;20054;-63
2022/07/03 10:15:19;;;;;;;3.38;1.05;;;;;;;;;;5095896;28;20040;-64
2022/07/03 10:17:49;;;;;;;2.88;0.80;;;;;;;;;;5093996;28;20094;-64
2022/07/03 10:20:16;;;;;;;1.98;0.80;;;;;;;;;;5093126;28;20075;-63
2022/07/03 10:22:42;;;;;;;2.08;0.90;;;;;;;;;;5092907;28;20439;-63
2022/07/03 10:25:09;;;;;;;2.33;0.80;;;;;;;;;;5093421;28;20051;-63
2022/07/03 10:27:36;;;;;;;2.83;0.80;;;;;;;;;;5126293;22;20500;-62
2022/07/03 10:30:03;;;;;;;2.90;0.85;;;;;;;;;;5127775;27;20492;-62
2022/07/03 10:32:30;;;;;;;2.08;0.90;;;;;;;;;;5134683;27;20043;-62
2022/07/03 10:34:56;;;;;;;2.10;0.90;;;;;;;;;;5124592;27;20505;-62
2022/07/03 10:37:26;;;;;;;2.70;1.15;;;;;;;;;;5125562;27;20035;-62
2022/07/03 10:44:45;;;;;;;2.25;0.85;;;;;;;;;;5125372;27;20036;-62
2022/07/03 10:45:33;;;;;;;2.05;0.80;;;;;;;;;;5134192;27;20039;-62
2022/07/03 10:47:59;;;;;;;1.67;0.98;;;;;;;;;;5134022;27;20035;-62
2022/07/03 10:50:26;;;;;;;1.90;0.70;;;;;;;;;;5134217;27;20084;-62
2022/07/03 10:52:52;;;;;;;1.77;0.80;;;;;;;;;;5133964;27;20039;-62
2022/07/03 10:55:18;;;;;;;2.15;0.80;;;;;;;;;;5116896;27;20119;-62
2022/07/03 10:58:04;;;;;;;1.98;0.73;;;;;;;;;;5124100;27;20046;-62
2022/07/03 11:00:30;;;;;;;2.40;0.80;;;;;;;;;;5093657;27;20398;-63
2022/07/03 11:02:56;;;;;;;1.90;0.73;;;;;;;;;;5093128;28;20042;-62
2022/07/03 11:05:23;;;;;;;2.67;0.82;;;;;;;;;;5092611;28;20046;-63
2022/07/03 11:07:53;;;;;;;1.10;0.70;;;;;;;;;;5093030;28;20039;-62
2022/07/03 11:10:19;;;;;;;3.05;1.15;;;;;;;;;;5112729;27;20038;-62
2022/07/03 11:12:57;;;;;;;2.67;0.70;;;;;;;;;;5125749;27;20035;-62
2022/07/03 11:15:30;;;;;;;4.45;0.90;;;;;;;;;;5133874;27;20039;-62
2022/07/03 11:18:22;;;;;;;1.75;0.75;;;;;;;;;;5132964;27;20092;-62
2022/07/03 11:20:51;;;;;;;2.25;0.73;;;;;;;;;;5120062;27;20501;-63
2022/07/03 11:23:20;;;;;;;1.67;0.70;;;;;;;;;;5119990;27;20583;-62
2022/07/03 11:25:47;;;;;;;2.13;0.75;;;;;;;;;;5128991;27;20046;-62
2022/07/03 11:28:34;;;;;;;1.85;0.77;;;;;;;;;;5093682;28;20097;-62
2022/07/03 11:31:16;;;;;;;1.67;0.80;;;;;;;;;;5092584;28;20101;-62
2022/07/03 11:33:54;;;;;;;2.03;0.90;;;;;;;;;;5090950;28;20040;-62
2022/07/03 11:36:25;;;;;;;1.83;0.70;;;;;;;;;;5110224;27;20134;-62
2022/07/03 11:38:51;;;;;;;;;;;;;;;;;;5126817;27;20062;-62
2022/07/03 11:41:17;;;;;;;3.38;0.73;;;;;;;;;;5104780;27;19916;-62
2022/07/03 11:43:50;;;;;;;1.67;0.60;;;;;;;;;;5091425;28;20036;-62
2022/07/03 11:46:26;;;;;;;1.17;0.70;;;;;;;;;;5092393;28;20040;-63
2022/07/03 11:49:07;;;;;;;3.47;0.80;;;;;;;;;;5091957;28;20040;-63
2022/07/03 11:51:33;;;;;;;2.47;0.90;;;;;;;;;;5112039;27;20031;-63
2022/07/03 11:53:59;;;;;;;2.60;0.70;;;;;;;;;;5127398;27;20042;-62
2022/07/03 11:56:25;;;;;;;2.60;0.80;;;;;;;;;;5097688;27;20040;-63
2022/07/03 11:58:52;;;;;;;4.47;0.93;;;;;;;;;;5109875;28;20035;-62
2022/07/03 12:01:37;;;;;;;2.13;0.70;;;;;;;;;;5112686;28;20036;-62
2022/07/03 12:04:03;;;;;;;1.02;0.60;;;;;;;;;;5110427;28;20335;-62
2022/07/03 12:06:48;;;;;;;1.08;0.70;;;;;;;;;;5121744;27;20043;-62
2022/07/03 12:09:17;;;;;;;1.40;0.60;;;;;;;;;;5118814;27;20398;-62
2022/07/03 12:11:53;;;;;;;1.65;0.98;;;;;;;;;;5092128;28;20410;-62
2022/07/03 12:14:33;;;;;;;3.30;0.75;;;;;;;;;;5090476;28;20044;-62
2022/07/03 12:16:59;;;;;;;1.27;0.98;;;;;;;;;;5091516;28;20081;-62
2022/07/03 12:19:25;;;;;;;1.67;0.80;;;;;;;;;;5110072;27;20035;-62
2022/07/03 12:21:51;;;;;;;2.10;0.60;;;;;;;;;;5126799;27;20047;-62
2022/07/03 12:24:17;;;;;;;1.75;0.50;;;;;;;;;;5113706;27;20062;-61
2022/07/03 12:26:43;;;;;;;0.63;0.50;;;;;;;;;;5091674;28;20101;-62
2022/07/03 12:29:16;;;;;;;1.77;0.70;;;;;;;;;;5091116;28;20044;-62
2022/07/03 12:31:43;;;;;;;1.80;0.40;;;;;;;;;;5091971;28;20071;-62
2022/07/03 12:34:10;;;;;;;1.10;0.50;;;;;;;;;;5103981;28;20031;-62
2022/07/03 12:36:37;;;;;;;1.52;0.77;;;;;;;;;;5097651;28;20040;-62
2022/07/03 12:39:03;;;;;;;1.30;0.80;;;;;;;;;;5101094;28;20091;-64
2022/07/03 12:41:29;;;;;;;1.92;0.57;;;;;;;;;;5103743;28;20459;-65
2022/07/03 12:43:56;;;;;;;1.15;0.50;;;;;;;;;;5111433;28;20497;-65
2022/07/03 12:46:25;;;;;;;2.88;0.68;;;;;;;;;;5098944;28;20040;-65
2022/07/03 12:48:55;;;;;;;1.40;0.60;;;;;;;;;;5095377;28;20409;-65
2022/07/03 12:51:40;;;;;;;1.27;0.55;;;;;;;;;;5126041;27;20074;-65
2022/07/03 12:54:10;;;;;;;2.30;0.82;;;;;;;;;;5105923;27;20508;-65
2022/07/03 12:56:37;;;;;;;3.83;0.80;;;;;;;;;;5100395;27;20057;-65
2022/07/03 12:59:18;;;;;;;1.90;0.77;;;;;;;;;;5113071;28;20040;-65
2022/07/03 13:01:46;;;;;;;2.25;0.90;;;;;;;;;;5104813;28;20487;-65
2022/07/03 13:04:15;;;;;;;1.70;0.73;;;;;;;;;;5098970;28;20036;-65
2022/07/03 13:06:42;;;;;;;3.38;0.95;;;;;;;;;;5097847;28;20036;-65
2022/07/03 13:09:08;;;;;;;4.80;1.00;;;;;;;;;;5110824;28;20100;-65
2022/07/03 13:11:34;;;;;;;1.67;0.85;;;;;;;;;;5095377;28;20067;-65
2022/07/03 13:14:11;;;;;;;1.08;0.68;;;;;;;;;;5094501;28;20072;-65
2022/07/03 13:16:38;;;;;;;1.85;0.80;;;;;;;;;;5101067;28;20442;-65
2022/07/03 13:19:06;;;;;;;3.00;1.10;;;;;;;;;;5107718;28;20039;-65
2022/07/03 13:21:32;;;;;;;4.40;0.90;;;;;;;;;;5113303;28;20043;-65
2022/07/03 13:23:58;;;;;;;1.88;0.98;;;;;;;;;;5103072;28;20039;-65
2022/07/03 13:26:24;;;;;;;2.75;1.10;;;;;;;;;;5108116;28;20138;-65
2022/07/03 13:28:50;;;;;;;2.33;0.90;;;;;;;;;;5108381;28;20489;-65
2022/07/03 13:31:16;;;;;;;2.05;0.80;;;;;;;;;;5107826;28;20050;-65
2022/07/03 13:33:42;;;;;;;2.08;1.00;;;;;;;;;;5104568;28;20081;-65
2022/07/03 13:36:08;;;;;;;3.25;1.05;;;;;;;;;;5103011;28;20039;-65
2022/07/03 13:38:34;;;;;;;3.03;0.90;;;;;;;;;;5112663;28;20397;-65
2022/07/03 13:41:00;;;;;;;2.40;0.90;;;;;;;;;;5103768;28;20483;-65
2022/07/03 13:43:26;;;;;;;5.47;1.00;;;;;;;;;;5111943;27;20084;-65
2022/07/03 13:45:52;;;;;;;5.15;0.98;;;;;;;;;;5095372;28;20066;-65
2022/07/03 13:48:18;;;;;;;4.68;1.00;;;;;;;;;;5095586;28;20074;-65
2022/07/03 13:50:46;;;;;;;10.18;1.50;;;;;;;;;;5105182;28;20059;-62
2022/07/03 13:53:12;;;;;;;4.30;1.40;;;;;;;;;;5109946;28;20609;-63
2022/07/03 13:55:40;;;;;;;7.10;1.50;;;;;;;;;;5102277;28;20036;-64
2022/07/03 13:58:07;;;;;;;1.90;0.80;;;;;;;;;;5105866;28;20097;-64
2022/07/03 14:00:33;;;;;;;2.45;0.95;;;;;;;;;;5109842;27;20043;-63
2022/07/03 14:02:59;;;;;;;3.33;1.42;;;;;;;;;;5113737;27;20494;-63
2022/07/03 14:05:25;;;;;;;3.45;1.77;;;;;;;;;;5114032;28;20035;-66
2022/07/03 14:07:51;;;;;;;2.72;1.58;;;;;;;;;;5114327;28;20100;-65
2022/07/03 14:10:18;;;;;;;2.72;2.00;;;;;;;;;;5104844;28;20028;-64
2022/07/03 14:12:44;;;;;;;2.63;2.00;;;;;;;;;;5105580;28;20503;-64
2022/07/03 14:15:10;;;;;;;3.90;2.33;;;;;;;;;;5095187;28;20428;-63
2022/07/03 14:17:36;;;;;;;3.08;2.70;;;;;;;;;;5101800;27;20035;-63
2022/07/03 14:20:02;;;;;;;5.68;3.45;;;;;;;;;;5101224;27;20039;-62
2022/07/03 14:22:28;;;;;;;4.93;3.85;;;;;;;;;;5103117;28;20077;-62
2022/07/03 14:24:54;;;;;;;4.45;3.03;;;;;;;;;;5105540;28;20031;-61
2022/07/03 14:32:50;;;;;;;3.28;2.33;;;;;;;;;;5116861;27;20039;-63
2022/07/03 14:35:16;;;;;;;4.88;2.15;;;;;;;;;;5099348;27;20044;-62
2022/07/03 14:37:42;;;;;;;3.65;2.10;;;;;;;;;;5097527;28;20096;-62
2022/07/03 14:40:09;;;;;;;3.83;1.90;;;;;;;;;;5097025;28;20455;-63
2022/07/03 14:42:35;;;;;;;3.35;2.00;;;;;;;;;;5114116;28;20035;-63
2022/07/03 14:45:01;;;;;;;2.80;1.50;;;;;;;;;;5109114;28;20043;-63
2022/07/03 14:47:27;;;;;;;1.40;1.23;;;;;;;;;;5105448;27;20075;-63
2022/07/03 14:49:53;;;;;;;2.60;1.35;;;;;;;;;;5095517;28;20446;-63
2022/07/03 14:52:19;;;;;;;2.05;1.40;;;;;;;;;;5113192;28;20165;-63
2022/07/03 14:54:45;;;;;;;3.15;1.20;;;;;;;;;;5107272;28;20035;-63
2022/07/03 14:57:34;;;;;;;1.58;1.02;;;;;;;;;;5106829;28;20067;-63
2022/07/03 15:00:10;;;;;;;2.08;1.23;;;;;;;;;;5093383;28;20573;-63
2022/07/03 15:02:58;;;;;;;1.67;0.90;;;;;;;;;;5113083;27;20039;-63